createdAt,value
2022-09-28T00:00:38.989Z,3.15
2022-09-28T00:02:13.073Z,5.22
2022-09-28T00:03:45.747Z,5.10
2022-09-28T00:05:18.874Z,4.60
2022-09-28T00:06:51.597Z,3.47
2022-09-28T00:08:24.294Z,4.32
2022-09-28T00:09:56.976Z,3.38
2022-09-28T00:11:29.723Z,3.80
2022-09-28T00:13:01.764Z,5.55
2022-09-28T00:14:34.459Z,3.50
2022-09-28T00:16:09.718Z,6.28
2022-09-28T00:17:44.658Z,3.78
2022-09-28T00:19:17.710Z,4.18
2022-09-28T00:20:59.973Z,3.60
2022-09-28T00:22:32.788Z,3.38
2022-09-28T00:24:12.615Z,4.13
2022-09-28T00:25:45.307Z,5.50
2022-09-28T00:27:18.038Z,4.20
2022-09-28T00:28:51.910Z,3.70
2022-09-28T00:30:24.651Z,3.88
2022-09-28T00:32:00.054Z,4.63
2022-09-28T00:33:34.322Z,4.03
2022-09-28T00:35:07.885Z,4.97
2022-09-28T00:36:42.439Z,7.07
2022-09-28T00:38:16.644Z,4.22
2022-09-28T00:39:50.238Z,4.60
2022-09-28T00:41:22.402Z,3.80
2022-09-28T00:42:55.081Z,3.92
2022-09-28T00:44:43.788Z,5.43
2022-09-28T00:46:20.695Z,4.65
2022-09-28T00:47:57.357Z,3.80
2022-09-28T00:49:33.950Z,3.38
2022-09-28T00:51:10.017Z,5.70
2022-09-28T00:52:45.914Z,4.82
2022-09-28T00:54:18.702Z,4.60
2022-09-28T00:55:55.883Z,4.97
2022-09-28T00:57:28.700Z,3.53
2022-09-28T00:59:02.205Z,4.20
2022-09-28T01:00:34.923Z,3.40
2022-09-28T01:02:07.346Z,3.78
2022-09-28T01:03:45.197Z,2.72
2022-09-28T01:05:19.880Z,4.20
2022-09-28T01:06:53.214Z,5.32
2022-09-28T01:08:28.199Z,4.00
2022-09-28T01:10:00.161Z,4.10
2022-09-28T01:11:34.431Z,3.78
2022-09-28T01:13:07.325Z,2.60
2022-09-28T01:14:41.002Z,2.60
2022-09-28T01:16:20.950Z,3.65
2022-09-28T01:18:04.692Z,4.50
2022-09-28T01:20:14.597Z,2.53
2022-09-28T01:21:52.989Z,4.00
2022-09-28T01:24:10.866Z,3.13
2022-09-28T01:25:50.784Z,4.30
2022-09-28T01:27:29.004Z,4.40
2022-09-28T01:29:06.219Z,3.70
2022-09-28T01:30:46.758Z,2.45
2022-09-28T01:32:28.088Z,4.15
2022-09-28T01:34:05.760Z,3.03
2022-09-28T01:35:43.185Z,4.10
2022-09-28T01:37:20.341Z,4.03
2022-09-28T01:38:55.815Z,3.25
2022-09-28T01:40:31.150Z,2.20
2022-09-28T01:42:07.909Z,3.03
2022-09-28T01:43:44.703Z,2.45
2022-09-28T01:45:22.854Z,2.17
2022-09-28T01:47:00.789Z,2.30
2022-09-28T01:48:39.034Z,1.95
2022-09-28T01:50:15.221Z,2.20
2022-09-28T01:51:53.255Z,2.45
2022-09-28T01:53:32.995Z,2.05
2022-09-28T01:55:10.092Z,4.10
2022-09-28T01:56:47.308Z,1.90
2022-09-28T01:58:25.832Z,3.38
2022-09-28T02:00:05.359Z,2.15
2022-09-28T02:01:42.262Z,2.42
2022-09-28T02:03:19.811Z,1.83
2022-09-28T02:04:56.612Z,1.88
2022-09-28T02:06:34.729Z,2.95
2022-09-28T02:08:14.216Z,1.98
2022-09-28T02:09:50.146Z,2.22
2022-09-28T02:11:23.746Z,1.65
2022-09-28T02:13:01.597Z,1.50
2022-09-28T02:14:35.899Z,1.75
2022-09-28T02:16:18.200Z,3.17
2022-09-28T02:17:51.744Z,4.03
2022-09-28T02:19:27.338Z,2.22
2022-09-28T02:21:06.863Z,2.42
2022-09-28T02:22:44.342Z,2.08
2022-09-28T02:24:23.343Z,2.30
2022-09-28T02:26:02.111Z,2.25
2022-09-28T02:27:37.438Z,2.17
2022-09-28T02:29:10.273Z,1.75
2022-09-28T02:30:46.836Z,2.63
2022-09-28T02:32:21.510Z,1.92
2022-09-28T02:33:55.857Z,1.63
2022-09-28T02:35:29.394Z,3.40
2022-09-28T02:37:02.629Z,1.77
2022-09-28T02:38:36.970Z,1.73
2022-09-28T02:40:16.383Z,2.80
2022-09-28T02:42:05.902Z,2.10
2022-09-28T02:43:48.559Z,3.38
2022-09-28T02:45:36.611Z,3.75
2022-09-28T02:47:22.394Z,4.53
2022-09-28T02:49:21.505Z,2.85
2022-09-28T02:51:03.006Z,2.00
2022-09-28T02:52:52.945Z,2.83
2022-09-28T02:54:37.406Z,1.95
2022-09-28T02:56:33.580Z,1.83
2022-09-28T02:58:20.562Z,1.88
2022-09-28T03:00:03.926Z,1.77
2022-09-28T03:01:42.634Z,1.65
2022-09-28T03:03:21.827Z,1.73
2022-09-28T03:05:11.625Z,1.58
2022-09-28T03:06:48.313Z,2.28
2022-09-28T03:08:26.956Z,1.88
2022-09-28T03:10:04.373Z,1.73
2022-09-28T03:11:41.666Z,2.15
2022-09-28T03:13:16.354Z,1.30
2022-09-28T03:14:49.080Z,1.70
2022-09-28T03:16:21.965Z,1.48
2022-09-28T03:17:55.036Z,2.40
2022-09-28T03:19:31.257Z,1.80
2022-09-28T03:21:06.123Z,3.25
2022-09-28T03:22:38.785Z,2.17
2022-09-28T03:24:11.466Z,1.60
2022-09-28T03:25:44.157Z,1.80
2022-09-28T03:27:16.965Z,2.65
2022-09-28T03:28:49.678Z,3.67
2022-09-28T03:30:22.857Z,2.10
2022-09-28T03:31:55.635Z,1.58
2022-09-28T03:33:28.469Z,3.97
2022-09-28T03:35:01.169Z,2.05
2022-09-28T03:36:35.206Z,2.03
2022-09-28T03:38:07.006Z,1.60
2022-09-28T03:39:39.681Z,2.28
2022-09-28T03:41:12.379Z,1.73
2022-09-28T03:42:45.050Z,1.50
2022-09-28T03:44:17.724Z,1.83
2022-09-28T03:45:54.865Z,3.88
2022-09-28T03:47:27.604Z,1.40
2022-09-28T03:49:00.283Z,1.52
2022-09-28T03:50:32.004Z,1.80
2022-09-28T03:52:06.011Z,3.13
2022-09-28T03:53:39.014Z,3.45
2022-09-28T03:55:11.883Z,1.75
2022-09-28T03:56:43.613Z,2.20
2022-09-28T03:58:16.289Z,2.50
2022-09-28T03:59:49.004Z,3.30
2022-09-28T04:01:21.732Z,2.13
2022-09-28T04:02:54.023Z,3.33
2022-09-28T04:04:26.796Z,2.92
2022-09-28T04:05:59.601Z,3.22
2022-09-28T04:07:33.597Z,2.95
2022-09-28T04:09:06.382Z,3.22
2022-09-28T04:10:39.056Z,4.38
2022-09-28T04:12:11.726Z,2.80
2022-09-28T04:13:44.945Z,4.07
2022-09-28T04:15:17.772Z,3.55
2022-09-28T04:16:54.186Z,3.90
2022-09-28T04:18:26.952Z,3.42
2022-09-28T04:19:59.642Z,2.20
2022-09-28T04:21:31.404Z,2.35
2022-09-28T04:23:05.472Z,1.50
2022-09-28T04:24:38.236Z,2.38
2022-09-28T04:26:16.532Z,3.63
2022-09-28T04:28:08.184Z,1.50
2022-09-28T04:29:43.825Z,2.17
2022-09-28T04:31:18.717Z,1.40
2022-09-28T04:32:51.453Z,1.83
2022-09-28T04:34:24.336Z,1.50
2022-09-28T04:35:56.072Z,3.33
2022-09-28T04:37:31.127Z,1.85
2022-09-28T04:39:05.358Z,2.45
2022-09-28T04:40:38.086Z,1.60
2022-09-28T04:42:11.517Z,2.05
2022-09-28T04:43:43.813Z,2.53
2022-09-28T04:45:16.957Z,4.03
2022-09-28T04:46:49.642Z,1.85
2022-09-28T04:48:21.364Z,2.53
2022-09-28T04:49:54.101Z,1.95
2022-09-28T04:51:27.013Z,2.45
2022-09-28T04:53:00.631Z,2.28
2022-09-28T04:54:34.705Z,1.80
2022-09-28T04:56:09.093Z,1.63
2022-09-28T04:57:42.036Z,2.22
2022-09-28T04:59:14.796Z,1.40
2022-09-28T05:00:49.251Z,1.30
2022-09-28T05:02:22.084Z,1.65
2022-09-28T05:03:54.019Z,1.55
2022-09-28T05:05:26.699Z,2.03
2022-09-28T05:06:59.413Z,1.42
2022-09-28T05:08:32.098Z,1.83
2022-09-28T05:10:06.753Z,2.85
2022-09-28T05:11:39.441Z,1.63
2022-09-28T05:13:13.868Z,2.83
2022-09-28T05:14:46.604Z,2.40
2022-09-28T05:16:20.298Z,1.77
2022-09-28T05:17:53.818Z,1.50
2022-09-28T05:19:26.504Z,2.00
2022-09-28T05:20:59.195Z,1.27
2022-09-28T05:22:31.877Z,3.20
2022-09-28T05:24:07.391Z,1.52
2022-09-28T05:25:41.572Z,1.50
2022-09-28T05:27:14.318Z,1.45
2022-09-28T05:28:46.995Z,2.60
2022-09-28T05:30:19.747Z,1.77
2022-09-28T05:31:52.574Z,1.92
2022-09-28T05:33:25.286Z,3.97
2022-09-28T05:35:00.984Z,1.67
2022-09-28T05:36:33.788Z,1.60
2022-09-28T05:38:05.535Z,1.50
2022-09-28T05:39:38.217Z,1.98
2022-09-28T05:41:12.627Z,1.52
2022-09-28T05:42:45.322Z,3.40
2022-09-28T05:44:18.089Z,2.28
2022-09-28T05:45:55.335Z,2.47
2022-09-28T05:47:28.773Z,1.50
2022-09-28T05:49:01.637Z,1.52
2022-09-28T05:50:34.322Z,2.60
2022-09-28T05:52:07.001Z,2.90
2022-09-28T05:53:39.690Z,1.90
2022-09-28T05:55:12.502Z,1.80
2022-09-28T05:56:46.564Z,1.60
2022-09-28T05:58:19.325Z,2.45
2022-09-28T05:59:52.586Z,1.60
2022-09-28T06:01:25.646Z,2.75
2022-09-28T06:03:00.408Z,1.98
2022-09-28T06:04:33.669Z,1.45
2022-09-28T06:06:06.700Z,2.40
2022-09-28T06:07:39.390Z,1.95
2022-09-28T06:09:12.073Z,3.67
2022-09-28T06:10:43.899Z,3.17
2022-09-28T06:12:18.192Z,2.63
2022-09-28T06:13:54.827Z,3.00
2022-09-28T06:15:29.659Z,2.00
2022-09-28T06:17:02.457Z,1.58
2022-09-28T06:18:35.604Z,2.38
2022-09-28T06:20:09.345Z,1.33
2022-09-28T06:21:42.157Z,3.15
2022-09-28T06:23:14.973Z,1.65
2022-09-28T06:24:47.666Z,2.60
2022-09-28T06:26:20.359Z,2.22
2022-09-28T06:27:58.758Z,2.55
2022-09-28T06:29:31.460Z,1.80
2022-09-28T06:31:04.494Z,1.88
2022-09-28T06:32:37.757Z,3.42
2022-09-28T06:34:11.539Z,2.35
2022-09-28T06:35:44.241Z,1.30
2022-09-28T06:37:16.952Z,3.13
2022-09-28T06:38:49.770Z,2.90
2022-09-28T06:40:23.607Z,2.00
2022-09-28T06:41:56.317Z,1.45
2022-09-28T06:43:34.250Z,1.20
2022-09-28T06:45:08.793Z,2.72
2022-09-28T06:46:41.480Z,2.22
2022-09-28T06:48:14.910Z,2.55
2022-09-28T06:49:47.678Z,2.22
2022-09-28T06:51:20.390Z,2.63
2022-09-28T06:52:54.437Z,2.20
2022-09-28T06:54:27.100Z,3.22
2022-09-28T06:56:00.459Z,2.72
2022-09-28T06:57:33.347Z,3.53
2022-09-28T06:59:07.544Z,1.70
2022-09-28T07:00:41.455Z,1.70
2022-09-28T07:02:14.650Z,2.40
2022-09-28T07:03:47.412Z,3.58
2022-09-28T07:05:26.614Z,2.90
2022-09-28T07:06:59.839Z,1.40
2022-09-28T07:08:32.634Z,1.88
2022-09-28T07:10:06.099Z,2.17
2022-09-28T07:11:40.409Z,1.90
2022-09-28T07:13:36.950Z,1.90
2022-09-28T07:15:09.978Z,4.35
2022-09-28T07:17:08.770Z,1.60
2022-09-28T07:18:35.332Z,3.60
2022-09-28T07:20:18.496Z,3.20
2022-09-28T07:22:03.119Z,1.67
2022-09-28T07:23:50.446Z,2.85
2022-09-28T07:25:28.068Z,2.65
2022-09-28T07:27:01.841Z,2.03
2022-09-28T07:28:34.526Z,1.50
2022-09-28T07:30:10.073Z,1.33
2022-09-28T07:31:42.803Z,1.63
2022-09-28T07:33:17.104Z,2.22
2022-09-28T07:34:50.235Z,2.37
2022-09-28T07:36:23.110Z,1.43
2022-09-28T07:38:00.256Z,2.50
2022-09-28T07:39:52.916Z,2.80
2022-09-28T07:41:32.429Z,3.03
2022-09-28T07:43:05.981Z,1.40
2022-09-28T07:44:40.898Z,1.43
2022-09-28T07:46:16.703Z,2.53
2022-09-28T07:47:49.409Z,2.87
2022-09-28T07:49:22.909Z,3.67
2022-09-28T07:50:57.308Z,2.40
2022-09-28T07:52:30.027Z,1.60
2022-09-28T07:54:04.220Z,2.03
2022-09-28T07:55:36.901Z,1.33
2022-09-28T07:57:09.572Z,2.10
2022-09-28T07:58:42.997Z,1.60
2022-09-28T08:00:16.528Z,1.40
2022-09-28T08:01:51.574Z,3.60
2022-09-28T08:03:24.317Z,1.63
2022-09-28T08:04:57.128Z,1.30
2022-09-28T08:06:31.472Z,1.43
2022-09-28T08:08:04.204Z,3.60
2022-09-28T08:09:37.469Z,1.50
2022-09-28T08:11:10.496Z,1.90
2022-09-28T08:12:43.501Z,2.87
2022-09-28T08:14:16.179Z,2.50
2022-09-28T08:15:50.157Z,2.10
2022-09-28T08:17:24.172Z,1.83
2022-09-28T08:18:56.840Z,3.70
2022-09-28T08:20:50.761Z,2.00
2022-09-28T08:22:23.324Z,2.43
2022-09-28T08:23:55.992Z,1.17
2022-09-28T08:25:28.668Z,2.40
2022-09-28T08:27:01.356Z,1.67
2022-09-28T08:28:34.877Z,1.83
2022-09-28T08:30:08.863Z,3.10
2022-09-28T08:31:41.528Z,2.73
2022-09-28T08:33:17.467Z,1.43
2022-09-28T08:34:50.135Z,1.50
2022-09-28T08:36:23.354Z,1.50
2022-09-28T08:37:56.028Z,2.07
2022-09-28T08:39:28.730Z,2.97
2022-09-28T08:41:07.873Z,1.67
2022-09-28T08:42:44.819Z,2.57
2022-09-28T08:44:23.885Z,3.27
2022-09-28T08:45:58.875Z,7.33
2022-09-28T08:47:54.356Z,1.83
2022-09-28T08:49:36.344Z,1.67
2022-09-28T08:51:16.482Z,2.00
2022-09-28T08:52:57.179Z,1.53
2022-09-28T08:54:39.298Z,2.40
2022-09-28T08:56:16.347Z,1.00
2022-09-28T08:57:53.722Z,1.73
2022-09-28T08:59:29.336Z,3.13
2022-09-28T09:01:06.625Z,9.63
2022-09-28T09:02:42.173Z,11.10
2022-09-28T09:04:15.441Z,7.37
2022-09-28T09:06:00.684Z,4.63
2022-09-28T09:08:16.919Z,2.47
2022-09-28T09:10:02.072Z,3.47
2022-09-28T09:11:52.245Z,4.30
2022-09-28T09:13:52.588Z,1.57
2022-09-28T09:15:47.278Z,3.03
2022-09-28T09:17:27.122Z,1.33
2022-09-28T09:19:10.174Z,1.73
2022-09-28T09:20:51.601Z,2.27
2022-09-28T09:22:39.289Z,3.13
2022-09-28T09:24:28.110Z,6.87
2022-09-28T09:26:09.957Z,1.13
2022-09-28T09:28:00.018Z,1.13
2022-09-28T09:29:56.402Z,1.73
2022-09-28T09:31:44.721Z,2.30
2022-09-28T09:33:43.837Z,1.33
2022-09-28T09:35:31.560Z,2.27
2022-09-28T09:37:17.796Z,2.63
2022-09-28T09:39:01.603Z,5.67
2022-09-28T09:40:50.728Z,1.83
2022-09-28T09:42:35.609Z,1.10
2022-09-28T09:44:22.831Z,1.63
2022-09-28T09:46:06.186Z,1.87
2022-09-28T09:47:42.856Z,1.37
2022-09-28T09:49:20.614Z,4.87
2022-09-28T09:50:58.272Z,3.23
2022-09-28T09:52:37.799Z,1.30
2022-09-28T09:54:21.973Z,3.90
2022-09-28T09:56:00.746Z,2.70
2022-09-28T09:57:36.509Z,1.80
2022-09-28T09:59:15.882Z,1.80
2022-09-28T10:00:52.440Z,2.30
2022-09-28T10:02:27.867Z,2.07
2022-09-28T10:04:01.613Z,3.80
2022-09-28T10:05:36.781Z,5.23
2022-09-28T10:07:17.085Z,1.23
2022-09-28T10:08:57.194Z,1.30
2022-09-28T10:10:34.804Z,0.73
2022-09-28T10:12:10.950Z,1.37
2022-09-28T10:13:44.592Z,2.60
2022-09-28T10:15:23.168Z,2.07
2022-09-28T10:16:58.074Z,2.10
2022-09-28T10:18:31.849Z,1.23
2022-09-28T10:20:05.751Z,0.90
2022-09-28T10:21:41.005Z,1.23
2022-09-28T10:23:20.330Z,2.63
2022-09-28T10:24:57.514Z,2.53
2022-09-28T10:26:36.525Z,3.00
2022-09-28T10:28:20.050Z,1.63
2022-09-28T10:29:55.391Z,1.07
2022-09-28T10:31:35.979Z,0.70
2022-09-28T10:33:29.883Z,1.77
2022-09-28T10:35:24.750Z,1.23
2022-09-28T10:37:00.502Z,1.80
2022-09-28T10:38:34.576Z,1.73
2022-09-28T10:40:32.669Z,2.03
2022-09-28T10:42:09.865Z,2.27
2022-09-28T10:44:05.952Z,2.37
2022-09-28T10:45:39.309Z,1.37
2022-09-28T10:47:16.881Z,7.87
2022-09-28T10:48:52.749Z,12.80
2022-09-28T10:50:28.378Z,3.27
2022-09-28T10:52:01.278Z,2.73
2022-09-28T10:53:36.940Z,2.03
2022-09-28T10:55:32.297Z,3.90
2022-09-28T10:57:25.412Z,1.10
2022-09-28T10:58:58.076Z,1.13
2022-09-28T11:00:38.505Z,1.13
2022-09-28T11:02:21.976Z,3.30
2022-09-28T11:03:58.783Z,0.70
2022-09-28T11:05:32.121Z,1.63
2022-09-28T11:07:05.432Z,1.13
2022-09-28T11:08:41.264Z,0.60
2022-09-28T11:10:21.563Z,2.10
2022-09-28T11:11:54.372Z,1.40
2022-09-28T11:13:29.302Z,0.90
2022-09-28T11:15:04.517Z,0.70
2022-09-28T11:16:37.387Z,0.87
2022-09-28T11:18:22.340Z,1.83
2022-09-28T11:19:55.745Z,1.40
2022-09-28T11:21:32.075Z,1.07
2022-09-28T11:23:20.355Z,0.77
2022-09-28T11:24:53.574Z,0.63
2022-09-28T11:26:26.391Z,1.00
2022-09-28T11:28:04.208Z,2.53
2022-09-28T11:29:41.620Z,1.90
2022-09-28T11:31:14.389Z,10.90
2022-09-28T11:32:48.105Z,2.33
2022-09-28T11:34:36.507Z,1.80
2022-09-28T11:36:36.175Z,6.77
2022-09-28T11:38:23.369Z,1.37
2022-09-28T11:40:06.556Z,3.97
2022-09-28T11:41:55.855Z,1.87
2022-09-28T11:43:45.972Z,1.20
2022-09-28T11:45:33.321Z,2.40
2022-09-28T11:47:41.444Z,1.67
2022-09-28T11:49:27.448Z,0.63
2022-09-28T11:51:03.994Z,3.87
2022-09-28T11:52:44.388Z,1.47
2022-09-28T11:54:24.057Z,0.90
2022-09-28T11:56:03.205Z,4.47
2022-09-28T11:57:41.699Z,0.70
2022-09-28T11:59:19.528Z,2.57
2022-09-28T12:00:58.041Z,2.33
2022-09-28T12:02:36.623Z,1.00
2022-09-28T12:04:14.669Z,1.30
2022-09-28T12:05:51.368Z,2.07
2022-09-28T12:07:28.755Z,2.33
2022-09-28T12:09:09.240Z,2.37
2022-09-28T12:10:48.557Z,2.87
2022-09-28T12:12:26.357Z,1.60
2022-09-28T12:14:03.746Z,3.70
2022-09-28T12:16:15.082Z,1.03
2022-09-28T12:17:46.282Z,1.87
2022-09-28T12:19:23.472Z,1.07
2022-09-28T12:21:09.393Z,1.03
2022-09-28T12:22:46.830Z,2.10
2022-09-28T12:24:22.454Z,0.83
2022-09-28T12:25:59.908Z,0.93
2022-09-28T12:27:41.009Z,1.00
2022-09-28T12:29:19.631Z,2.03
2022-09-28T12:30:53.331Z,2.87
2022-09-28T12:32:35.533Z,10.07
2022-09-28T12:34:10.891Z,2.70
2022-09-28T12:36:04.092Z,4.37
2022-09-28T12:37:54.548Z,0.67
2022-09-28T12:39:56.895Z,1.97
2022-09-28T12:41:43.692Z,1.23
2022-09-28T12:43:40.501Z,2.30
2022-09-28T12:45:28.081Z,1.23
2022-09-28T12:47:20.900Z,2.17
2022-09-28T12:51:25.961Z,1.43
2022-09-28T12:53:19.306Z,1.37
2022-09-28T12:55:18.038Z,2.70
2022-09-28T12:57:01.924Z,2.73
2022-09-28T12:58:49.289Z,1.27
2022-09-28T13:00:24.636Z,2.70
2022-09-28T13:02:14.792Z,2.40
2022-09-28T13:04:32.145Z,4.07
2022-09-28T13:06:22.194Z,1.20
2022-09-28T13:08:00.719Z,7.33
2022-09-28T13:09:40.852Z,1.27
2022-09-28T13:11:22.259Z,2.40
2022-09-28T13:13:13.721Z,1.50
2022-09-28T13:15:09.776Z,1.13
2022-09-28T13:16:47.339Z,1.90
2022-09-28T13:18:28.484Z,0.90
2022-09-28T13:20:13.001Z,0.70
2022-09-28T13:21:56.607Z,1.97
2022-09-28T13:23:36.352Z,1.40
2022-09-28T13:25:15.349Z,0.70
2022-09-28T13:26:48.704Z,1.87
2022-09-28T13:28:27.009Z,1.43
2022-09-28T13:30:03.510Z,1.37
2022-09-28T13:31:41.034Z,2.13
2022-09-28T13:33:19.644Z,1.57
2022-09-28T13:34:52.427Z,2.47
2022-09-28T13:36:39.168Z,1.37
2022-09-28T13:38:53.757Z,1.13
2022-09-28T13:41:11.753Z,5.83
2022-09-28T13:43:02.349Z,0.90
2022-09-28T13:44:54.330Z,1.13
2022-09-28T13:46:35.102Z,5.50
2022-09-28T13:48:20.534Z,3.20
2022-09-28T13:50:06.618Z,1.60
2022-09-28T13:51:48.736Z,0.90
2022-09-28T13:53:28.280Z,1.30
2022-09-28T13:55:15.537Z,0.77
2022-09-28T13:56:57.728Z,10.60
2022-09-28T13:58:35.945Z,2.10
2022-09-28T14:00:18.325Z,1.77
2022-09-28T14:01:57.343Z,1.17
2022-09-28T14:03:44.700Z,1.10
2022-09-28T14:05:47.285Z,1.03
2022-09-28T14:07:24.614Z,2.67
2022-09-28T14:09:41.804Z,0.90
2022-09-28T14:11:43.674Z,0.80
2022-09-28T14:15:48.777Z,5.93
2022-09-28T14:17:54.705Z,1.27
2022-09-28T14:19:32.124Z,3.53
2022-09-28T14:21:42.573Z,2.97
2022-09-28T14:23:32.000Z,1.90
2022-09-28T14:25:11.498Z,1.80
2022-09-28T14:27:23.980Z,0.63
2022-09-28T14:29:10.131Z,1.37
2022-09-28T14:30:50.588Z,3.43
2022-09-28T14:32:25.110Z,1.07
2022-09-28T14:34:01.041Z,1.00
2022-09-28T14:35:40.051Z,1.80
2022-09-28T14:37:39.274Z,1.73
2022-09-28T14:39:39.706Z,2.77
2022-09-28T14:41:27.805Z,1.33
2022-09-28T14:43:25.360Z,6.77
2022-09-28T14:45:38.293Z,3.30
2022-09-28T14:47:35.408Z,4.70
2022-09-28T14:49:42.765Z,2.67
2022-09-28T14:52:02.489Z,4.10
2022-09-28T14:53:40.074Z,4.30
2022-09-28T14:55:16.031Z,3.30
2022-09-28T14:57:07.957Z,2.20
2022-09-28T14:58:42.201Z,7.57
2022-09-28T15:00:22.446Z,1.53
2022-09-28T15:02:00.977Z,1.60
2022-09-28T15:03:37.394Z,3.97
2022-09-28T15:05:16.845Z,4.63
2022-09-28T15:06:52.224Z,28.27
2022-09-28T15:08:36.849Z,25.13
2022-09-28T15:10:23.059Z,6.47
2022-09-28T15:12:04.114Z,4.10
2022-09-28T15:13:40.655Z,0.93
2022-09-28T15:15:26.271Z,2.47
2022-09-28T15:17:03.337Z,2.33
2022-09-28T15:19:13.316Z,3.47
2022-09-28T15:20:48.936Z,2.33
2022-09-28T15:22:22.627Z,6.63
2022-09-28T15:23:55.325Z,14.97
2022-09-28T15:25:30.499Z,7.17
2022-09-28T15:27:05.214Z,6.13
2022-09-28T15:28:44.808Z,2.67
2022-09-28T15:30:24.084Z,2.00
2022-09-28T15:31:56.779Z,3.57
2022-09-28T15:33:48.776Z,3.20
2022-09-28T15:35:26.150Z,2.30
2022-09-28T15:36:58.919Z,1.83
2022-09-28T15:38:33.180Z,4.70
2022-09-28T15:40:13.904Z,4.07
2022-09-28T15:41:48.694Z,5.17
2022-09-28T15:43:26.832Z,4.40
2022-09-28T15:45:07.687Z,1.00
2022-09-28T15:46:42.696Z,2.67
2022-09-28T15:48:20.772Z,2.10
2022-09-28T15:49:58.467Z,3.67
2022-09-28T15:51:46.606Z,3.17
2022-09-28T15:53:19.725Z,3.33
2022-09-28T15:54:52.685Z,1.83
2022-09-28T15:56:26.135Z,1.23
2022-09-28T15:58:17.050Z,2.67
2022-09-28T15:59:56.778Z,2.03
2022-09-28T16:01:36.426Z,2.80
2022-09-28T16:03:23.285Z,5.57
2022-09-28T16:05:00.758Z,1.07
2022-09-28T16:06:34.884Z,2.43
2022-09-28T16:08:21.169Z,1.50
2022-09-28T16:10:06.275Z,1.83
2022-09-28T16:11:41.556Z,2.33
2022-09-28T16:13:19.917Z,1.57
2022-09-28T16:14:53.883Z,1.50
2022-09-28T16:16:29.889Z,4.73
2022-09-28T16:18:04.197Z,4.40
2022-09-28T16:19:39.237Z,2.93
2022-09-28T16:21:43.014Z,2.50
2022-09-28T16:23:21.703Z,4.03
2022-09-28T16:24:57.037Z,6.77
2022-09-28T16:26:32.877Z,5.23
2022-09-28T16:28:06.698Z,4.90
2022-09-28T16:29:41.886Z,2.37
2022-09-28T16:31:29.590Z,2.60
2022-09-28T16:33:05.167Z,1.90
2022-09-28T16:34:38.181Z,1.87
2022-09-28T16:36:14.132Z,1.93
2022-09-28T16:37:50.243Z,2.37
2022-09-28T16:39:22.947Z,1.40
2022-09-28T16:40:57.783Z,1.13
2022-09-28T16:42:31.017Z,1.40
2022-09-28T16:44:03.745Z,1.70
2022-09-28T16:45:36.750Z,1.80
2022-09-28T16:47:09.437Z,9.23
2022-09-28T16:48:48.657Z,1.60
2022-09-28T16:50:22.206Z,3.30
2022-09-28T16:51:54.986Z,3.23
2022-09-28T16:53:46.729Z,1.43
2022-09-28T16:57:13.547Z,2.97
2022-09-28T16:58:49.060Z,3.43
2022-09-28T17:00:23.971Z,2.67
2022-09-28T17:01:57.441Z,3.87
2022-09-28T17:03:30.400Z,2.23
2022-09-28T17:05:03.324Z,3.70
2022-09-28T17:06:36.064Z,4.50
2022-09-28T17:08:14.580Z,3.47
2022-09-28T17:09:48.685Z,2.03
2022-09-28T17:11:24.450Z,1.57
2022-09-28T17:12:57.692Z,1.87
2022-09-28T17:14:32.717Z,2.30
2022-09-28T17:16:10.343Z,1.87
2022-09-28T17:17:43.161Z,2.33
2022-09-28T17:19:20.341Z,3.37
2022-09-28T17:20:56.673Z,3.13
2022-09-28T17:22:29.824Z,2.10
2022-09-28T17:24:02.651Z,2.37
2022-09-28T17:25:37.355Z,2.40
2022-09-28T17:27:16.388Z,2.97
2022-09-28T17:28:49.113Z,5.83
2022-09-28T17:30:23.727Z,3.77
2022-09-28T17:31:58.386Z,2.50
2022-09-28T17:33:31.217Z,3.57
2022-09-28T17:35:23.714Z,3.33
2022-09-28T17:36:56.877Z,3.07
2022-09-28T17:38:29.781Z,5.37
2022-09-28T17:40:02.864Z,3.87
2022-09-28T17:41:37.466Z,2.90
2022-09-28T17:43:10.774Z,2.77
2022-09-28T17:44:43.464Z,3.90
2022-09-28T17:46:27.223Z,3.03
2022-09-28T17:48:00.591Z,3.50
2022-09-28T17:49:33.289Z,3.70
2022-09-28T17:51:06.657Z,2.17
2022-09-28T17:52:39.357Z,2.73
2022-09-28T17:54:13.549Z,3.47
2022-09-28T17:55:46.270Z,2.53
2022-09-28T17:57:20.294Z,3.73
2022-09-28T17:58:53.453Z,5.87
2022-09-28T18:00:27.799Z,1.70
2022-09-28T18:02:02.337Z,3.07
2022-09-28T18:03:35.393Z,2.60
2022-09-28T18:05:10.369Z,2.40
2022-09-28T18:06:44.048Z,3.83
2022-09-28T18:08:19.289Z,2.30
2022-09-28T18:09:56.532Z,2.43
2022-09-28T18:11:29.250Z,2.03
2022-09-28T18:13:03.296Z,4.13
2022-09-28T18:14:36.613Z,4.57
2022-09-28T18:16:09.636Z,6.83
2022-09-28T18:17:42.399Z,3.93
2022-09-28T18:19:15.091Z,2.93
2022-09-28T18:20:48.015Z,3.17
2022-09-28T18:22:20.978Z,1.63
2022-09-28T18:23:53.664Z,1.90
2022-09-28T18:25:26.369Z,3.10
2022-09-28T18:26:59.168Z,2.00
2022-09-28T18:28:33.189Z,1.50
2022-09-28T18:30:07.281Z,1.73
2022-09-28T18:31:39.958Z,1.60
2022-09-28T18:33:13.898Z,2.80
2022-09-28T18:34:46.602Z,3.03
2022-09-28T18:36:19.292Z,4.97
2022-09-28T18:37:52.004Z,4.83
2022-09-28T18:39:26.395Z,2.83
2022-09-28T18:41:06.801Z,3.17
2022-09-28T18:42:39.794Z,2.53
2022-09-28T18:44:13.833Z,2.60
2022-09-28T18:45:47.061Z,3.10
2022-09-28T18:47:19.884Z,3.43
2022-09-28T18:48:52.748Z,2.40
2022-09-28T18:50:25.441Z,4.00
2022-09-28T18:51:58.364Z,2.17
2022-09-28T18:53:33.191Z,1.73
2022-09-28T18:55:07.481Z,2.07
2022-09-28T18:56:40.308Z,2.37
2022-09-28T18:58:14.077Z,4.07
2022-09-28T18:59:48.282Z,1.87
2022-09-28T19:01:30.761Z,2.27
2022-09-28T19:03:05.228Z,1.90
2022-09-28T19:04:38.350Z,1.87
2022-09-28T19:06:11.558Z,1.47
2022-09-28T19:07:44.386Z,2.93
2022-09-28T19:09:20.405Z,1.90
2022-09-28T19:10:53.300Z,2.70
2022-09-28T19:12:26.317Z,3.53
2022-09-28T19:13:59.030Z,4.17
2022-09-28T19:15:34.557Z,2.20
2022-09-28T19:17:07.621Z,2.10
2022-09-28T19:18:40.814Z,3.80
2022-09-28T19:20:13.505Z,1.97
2022-09-28T19:21:47.171Z,2.70
2022-09-28T19:23:19.928Z,3.53
2022-09-28T19:24:52.633Z,4.40
2022-09-28T19:26:27.773Z,4.47
2022-09-28T19:28:00.493Z,4.47
2022-09-28T19:29:33.216Z,4.00
2022-09-28T19:31:09.649Z,3.50
2022-09-28T19:32:42.777Z,5.10
2022-09-28T19:34:15.608Z,3.07
2022-09-28T19:35:56.361Z,3.53
2022-09-28T19:37:29.061Z,3.93
2022-09-28T19:39:03.599Z,2.97
2022-09-28T19:40:38.103Z,3.70
2022-09-28T19:42:10.861Z,3.73
2022-09-28T19:43:44.025Z,3.30
2022-09-28T19:45:16.912Z,3.67
2022-09-28T19:46:51.380Z,3.13
2022-09-28T19:48:27.579Z,4.47
2022-09-28T19:50:00.281Z,2.63
2022-09-28T19:51:33.041Z,4.10
2022-09-28T19:53:07.065Z,4.23
2022-09-28T19:54:39.775Z,2.80
2022-09-28T19:56:12.479Z,2.73
2022-09-28T19:57:47.875Z,3.13
2022-09-28T19:59:21.170Z,4.23
2022-09-28T20:00:53.908Z,5.70
2022-09-28T20:02:28.090Z,3.50
2022-09-28T20:04:00.987Z,4.67
2022-09-28T20:05:33.699Z,6.13
2022-09-28T20:07:06.406Z,5.57
2022-09-28T20:08:41.388Z,4.53
2022-09-28T20:10:16.893Z,5.90
2022-09-28T20:11:51.674Z,4.73
2022-09-28T20:13:25.256Z,5.33
2022-09-28T20:14:57.994Z,5.23
2022-09-28T20:16:30.714Z,4.67
2022-09-28T20:18:05.026Z,5.50
2022-09-28T20:19:38.179Z,11.40
2022-09-28T20:21:17.202Z,16.00
2022-09-28T20:22:51.725Z,15.47
2022-09-28T20:24:24.784Z,18.07
2022-09-28T20:25:57.625Z,22.10
2022-09-28T20:27:30.347Z,21.70
2022-09-28T20:29:03.054Z,12.53
2022-09-28T20:30:35.822Z,9.13
2022-09-28T20:32:08.761Z,4.90
2022-09-28T20:33:43.313Z,4.70
2022-09-28T20:35:26.097Z,4.17
2022-09-28T20:37:05.213Z,4.63
2022-09-28T20:38:40.400Z,3.97
2022-09-28T20:40:13.112Z,6.00
2022-09-28T20:41:47.096Z,5.13
2022-09-28T20:43:19.809Z,5.33
2022-09-28T20:44:52.531Z,3.73
2022-09-28T20:46:25.490Z,6.50
2022-09-28T20:47:59.330Z,5.93
2022-09-28T20:49:33.392Z,5.00
2022-09-28T20:51:10.128Z,4.43
2022-09-28T20:52:42.842Z,5.67
2022-09-28T20:54:15.572Z,6.63
2022-09-28T20:55:48.276Z,5.00
2022-09-28T20:57:21.283Z,5.80
2022-09-28T20:58:54.980Z,3.25
2022-09-28T21:00:27.684Z,3.57
2022-09-28T21:02:00.426Z,4.37
2022-09-28T21:03:32.223Z,5.47
2022-09-28T21:05:07.484Z,4.60
2022-09-28T21:06:42.806Z,4.83
2022-09-28T21:08:15.516Z,3.20
2022-09-28T21:09:48.350Z,4.33
2022-09-28T21:11:22.545Z,5.50
2022-09-28T21:12:55.434Z,3.83
2022-09-28T21:14:28.255Z,4.25
2022-09-28T21:16:02.738Z,4.25
2022-09-28T21:17:35.512Z,3.90
2022-09-28T21:19:08.269Z,3.03
2022-09-28T21:20:47.122Z,4.60
2022-09-28T21:22:19.824Z,3.35
2022-09-28T21:23:53.969Z,4.20
2022-09-28T21:25:26.711Z,4.60
2022-09-28T21:26:59.441Z,5.22
2022-09-28T21:28:32.349Z,5.68
2022-09-28T21:30:06.183Z,6.07
2022-09-28T21:31:40.656Z,4.53
2022-09-28T21:33:13.408Z,4.53
2022-09-28T21:34:46.118Z,3.25
2022-09-28T21:36:20.211Z,4.47
2022-09-28T21:37:53.615Z,4.25
2022-09-28T21:39:26.308Z,3.92
2022-09-28T21:41:00.463Z,5.37
2022-09-28T21:42:33.301Z,2.58
2022-09-28T21:44:06.648Z,4.72
2022-09-28T21:45:39.573Z,4.03